sensor_id;sensor_type;location;lat;lon;timestamp;temperature;humidity
27900;DHT22;15243;50.726;7.080;2023-07-22T00:00:09;13.40;99.90
27900;DHT22;15243;50.726;7.080;2023-07-22T00:02:42;13.40;99.90
27900;DHT22;15243;50.726;7.080;2023-07-22T00:05:09;13.30;99.90
27900;DHT22;15243;50.726;7.080;2023-07-22T00:07:39;13.30;99.90
27900;DHT22;15243;50.726;7.080;2023-07-22T00:10:07;13.20;99.90
27900;DHT22;15243;50.726;7.080;2023-07-22T00:12:34;13.30;99.90
27900;DHT22;15243;50.726;7.080;2023-07-22T00:15:02;13.30;99.90
27900;DHT22;15243;50.726;7.080;2023-07-22T00:17:29;13.20;99.90
27900;DHT22;15243;50.726;7.080;2023-07-22T00:19:56;13.20;99.90
27900;DHT22;15243;50.726;7.080;2023-07-22T00:22:23;13.20;99.90
27900;DHT22;15243;50.726;7.080;2023-07-22T00:24:53;13.20;99.90
27900;DHT22;15243;50.726;7.080;2023-07-22T00:27:20;13.20;99.90
27900;DHT22;15243;50.726;7.080;2023-07-22T00:29:47;13.10;99.90
27900;DHT22;15243;50.726;7.080;2023-07-22T00:32:13;13.10;99.90
27900;DHT22;15243;50.726;7.080;2023-07-22T00:34:40;13.10;99.90
27900;DHT22;15243;50.726;7.080;2023-07-22T00:37:07;13.10;99.90
27900;DHT22;15243;50.726;7.080;2023-07-22T00:39:35;13.00;99.90
27900;DHT22;15243;50.726;7.080;2023-07-22T00:42:02;12.90;99.90
27900;DHT22;15243;50.726;7.080;2023-07-22T00:44:29;12.80;99.90
27900;DHT22;15243;50.726;7.080;2023-07-22T00:46:57;12.80;99.90
27900;DHT22;15243;50.726;7.080;2023-07-22T00:49:26;12.70;99.90
27900;DHT22;15243;50.726;7.080;2023-07-22T00:51:57;12.60;99.90
27900;DHT22;15243;50.726;7.080;2023-07-22T00:54:26;12.40;99.90
27900;DHT22;15243;50.726;7.080;2023-07-22T00:56:54;12.40;99.90
27900;DHT22;15243;50.726;7.080;2023-07-22T00:59:22;12.30;99.90
27900;DHT22;15243;50.726;7.080;2023-07-22T01:01:49;12.30;99.90
27900;DHT22;15243;50.726;7.080;2023-07-22T01:04:19;12.20;99.90
27900;DHT22;15243;50.726;7.080;2023-07-22T01:06:53;12.20;99.90
27900;DHT22;15243;50.726;7.080;2023-07-22T01:09:26;12.20;99.90
27900;DHT22;15243;50.726;7.080;2023-07-22T01:11:52;12.10;99.90
27900;DHT22;15243;50.726;7.080;2023-07-22T01:14:19;12.10;99.90
27900;DHT22;15243;50.726;7.080;2023-07-22T01:16:46;12.00;99.90
27900;DHT22;15243;50.726;7.080;2023-07-22T01:19:15;12.00;99.90
27900;DHT22;15243;50.726;7.080;2023-07-22T01:21:46;12.00;99.90
27900;DHT22;15243;50.726;7.080;2023-07-22T01:24:14;11.90;99.90
27900;DHT22;15243;50.726;7.080;2023-07-22T01:26:42;11.90;99.90
27900;DHT22;15243;50.726;7.080;2023-07-22T01:29:09;11.90;99.90
27900;DHT22;15243;50.726;7.080;2023-07-22T01:31:37;11.80;99.90
27900;DHT22;15243;50.726;7.080;2023-07-22T01:34:04;11.80;99.90
27900;DHT22;15243;50.726;7.080;2023-07-22T01:36:31;11.80;99.90
27900;DHT22;15243;50.726;7.080;2023-07-22T01:38:59;11.70;99.90
27900;DHT22;15243;50.726;7.080;2023-07-22T01:41:27;11.70;99.90
27900;DHT22;15243;50.726;7.080;2023-07-22T01:43:54;11.80;99.90
27900;DHT22;15243;50.726;7.080;2023-07-22T01:46:21;11.70;99.90
27900;DHT22;15243;50.726;7.080;2023-07-22T01:48:48;11.70;99.90
27900;DHT22;15243;50.726;7.080;2023-07-22T01:51:17;11.60;99.90
27900;DHT22;15243;50.726;7.080;2023-07-22T01:53:44;11.60;99.90
27900;DHT22;15243;50.726;7.080;2023-07-22T01:56:11;11.60;99.90
27900;DHT22;15243;50.726;7.080;2023-07-22T01:58:38;11.60;99.90
27900;DHT22;15243;50.726;7.080;2023-07-22T02:01:05;11.50;99.90
27900;DHT22;15243;50.726;7.080;2023-07-22T02:03:32;11.50;99.90
27900;DHT22;15243;50.726;7.080;2023-07-22T02:06:03;11.50;99.90
27900;DHT22;15243;50.726;7.080;2023-07-22T02:08:31;11.50;99.90
27900;DHT22;15243;50.726;7.080;2023-07-22T02:11:06;11.50;99.90
27900;DHT22;15243;50.726;7.080;2023-07-22T02:13:34;11.50;99.90
27900;DHT22;15243;50.726;7.080;2023-07-22T02:16:03;11.50;99.90
27900;DHT22;15243;50.726;7.080;2023-07-22T02:18:30;11.40;99.90
27900;DHT22;15243;50.726;7.080;2023-07-22T02:20:57;11.40;99.90
27900;DHT22;15243;50.726;7.080;2023-07-22T02:23:24;11.40;99.90
27900;DHT22;15243;50.726;7.080;2023-07-22T02:25:53;11.30;99.90
27900;DHT22;15243;50.726;7.080;2023-07-22T02:28:21;11.40;99.90
27900;DHT22;15243;50.726;7.080;2023-07-22T02:30:53;11.30;99.90
27900;DHT22;15243;50.726;7.080;2023-07-22T02:33:22;11.40;99.90
27900;DHT22;15243;50.726;7.080;2023-07-22T02:35:51;11.40;99.90
27900;DHT22;15243;50.726;7.080;2023-07-22T02:38:19;11.50;99.90
27900;DHT22;15243;50.726;7.080;2023-07-22T02:40:45;11.40;99.90
27900;DHT22;15243;50.726;7.080;2023-07-22T02:43:13;11.50;99.90
27900;DHT22;15243;50.726;7.080;2023-07-22T02:45:41;11.50;99.90
27900;DHT22;15243;50.726;7.080;2023-07-22T02:48:08;11.50;99.90
27900;DHT22;15243;50.726;7.080;2023-07-22T02:50:36;11.50;99.90
27900;DHT22;15243;50.726;7.080;2023-07-22T02:53:03;11.50;99.90
27900;DHT22;15243;50.726;7.080;2023-07-22T02:55:30;11.50;99.90
27900;DHT22;15243;50.726;7.080;2023-07-22T02:57:57;11.40;99.90
27900;DHT22;15243;50.726;7.080;2023-07-22T03:00:24;11.40;99.90
27900;DHT22;15243;50.726;7.080;2023-07-22T03:02:53;11.30;99.90
27900;DHT22;15243;50.726;7.080;2023-07-22T03:05:20;11.30;99.90
27900;DHT22;15243;50.726;7.080;2023-07-22T03:07:48;11.30;99.90
27900;DHT22;15243;50.726;7.080;2023-07-22T03:10:15;11.30;99.90
27900;DHT22;15243;50.726;7.080;2023-07-22T03:12:42;11.20;99.90
27900;DHT22;15243;50.726;7.080;2023-07-22T03:15:09;11.30;99.90
27900;DHT22;15243;50.726;7.080;2023-07-22T03:17:37;11.20;99.90
27900;DHT22;15243;50.726;7.080;2023-07-22T03:20:05;11.20;99.90
27900;DHT22;15243;50.726;7.080;2023-07-22T03:22:41;11.10;99.90
27900;DHT22;15243;50.726;7.080;2023-07-22T03:25:09;11.10;99.90
27900;DHT22;15243;50.726;7.080;2023-07-22T03:27:37;11.10;99.90
27900;DHT22;15243;50.726;7.080;2023-07-22T03:30:05;11.10;99.90
27900;DHT22;15243;50.726;7.080;2023-07-22T03:32:42;11.10;99.90
27900;DHT22;15243;50.726;7.080;2023-07-22T03:35:10;11.10;99.90
27900;DHT22;15243;50.726;7.080;2023-07-22T03:37:39;11.10;99.90
27900;DHT22;15243;50.726;7.080;2023-07-22T03:40:07;11.10;99.90
27900;DHT22;15243;50.726;7.080;2023-07-22T03:42:41;11.10;99.90
27900;DHT22;15243;50.726;7.080;2023-07-22T03:45:08;11.20;99.90
27900;DHT22;15243;50.726;7.080;2023-07-22T03:47:39;11.20;99.90
27900;DHT22;15243;50.726;7.080;2023-07-22T03:50:07;11.20;99.90
27900;DHT22;15243;50.726;7.080;2023-07-22T03:52:36;11.30;99.90
27900;DHT22;15243;50.726;7.080;2023-07-22T03:55:05;11.30;99.90
27900;DHT22;15243;50.726;7.080;2023-07-22T03:57:32;11.30;99.90
27900;DHT22;15243;50.726;7.080;2023-07-22T03:59:59;11.30;99.90
27900;DHT22;15243;50.726;7.080;2023-07-22T04:02:27;11.30;99.90
27900;DHT22;15243;50.726;7.080;2023-07-22T04:04:55;11.30;99.90
27900;DHT22;15243;50.726;7.080;2023-07-22T04:07:22;11.40;99.90
27900;DHT22;15243;50.726;7.080;2023-07-22T04:09:50;11.40;99.90
27900;DHT22;15243;50.726;7.080;2023-07-22T04:12:18;11.40;99.90
27900;DHT22;15243;50.726;7.080;2023-07-22T04:14:45;11.40;99.90
27900;DHT22;15243;50.726;7.080;2023-07-22T04:17:12;11.40;99.90
27900;DHT22;15243;50.726;7.080;2023-07-22T04:19:41;11.40;99.90
27900;DHT22;15243;50.726;7.080;2023-07-22T04:22:10;11.40;99.90
27900;DHT22;15243;50.726;7.080;2023-07-22T04:24:37;11.50;99.90
27900;DHT22;15243;50.726;7.080;2023-07-22T04:27:05;11.50;99.90
27900;DHT22;15243;50.726;7.080;2023-07-22T04:29:32;11.70;99.90
27900;DHT22;15243;50.726;7.080;2023-07-22T04:32:00;11.70;99.90
27900;DHT22;15243;50.726;7.080;2023-07-22T04:34:31;11.80;99.90
27900;DHT22;15243;50.726;7.080;2023-07-22T04:36:58;11.80;99.90
27900;DHT22;15243;50.726;7.080;2023-07-22T04:39:25;11.80;99.90
27900;DHT22;15243;50.726;7.080;2023-07-22T04:41:52;11.80;99.90
27900;DHT22;15243;50.726;7.080;2023-07-22T04:44:20;11.90;99.90
27900;DHT22;15243;50.726;7.080;2023-07-22T04:46:46;12.00;99.90
27900;DHT22;15243;50.726;7.080;2023-07-22T04:49:14;12.10;99.90
27900;DHT22;15243;50.726;7.080;2023-07-22T04:51:46;12.10;99.90
27900;DHT22;15243;50.726;7.080;2023-07-22T04:54:13;12.10;99.90
27900;DHT22;15243;50.726;7.080;2023-07-22T04:56:42;12.20;99.90
27900;DHT22;15243;50.726;7.080;2023-07-22T04:59:09;12.30;99.90
27900;DHT22;15243;50.726;7.080;2023-07-22T05:01:37;12.30;99.90
27900;DHT22;15243;50.726;7.080;2023-07-22T05:04:04;12.30;99.90
27900;DHT22;15243;50.726;7.080;2023-07-22T05:06:32;12.40;99.90
27900;DHT22;15243;50.726;7.080;2023-07-22T05:08:59;12.50;99.90
27900;DHT22;15243;50.726;7.080;2023-07-22T05:11:26;12.60;99.90
27900;DHT22;15243;50.726;7.080;2023-07-22T05:13:53;12.70;99.90
27900;DHT22;15243;50.726;7.080;2023-07-22T05:16:21;12.80;99.90
27900;DHT22;15243;50.726;7.080;2023-07-22T05:18:48;12.90;99.90
27900;DHT22;15243;50.726;7.080;2023-07-22T05:21:15;13.00;99.90
27900;DHT22;15243;50.726;7.080;2023-07-22T05:23:43;13.10;99.90
27900;DHT22;15243;50.726;7.080;2023-07-22T05:26:10;13.20;99.90
27900;DHT22;15243;50.726;7.080;2023-07-22T05:28:37;13.30;99.90
27900;DHT22;15243;50.726;7.080;2023-07-22T05:31:05;13.30;99.90
27900;DHT22;15243;50.726;7.080;2023-07-22T05:33:32;13.40;99.90
27900;DHT22;15243;50.726;7.080;2023-07-22T05:35:59;13.60;99.90
27900;DHT22;15243;50.726;7.080;2023-07-22T05:38:26;13.70;99.90
27900;DHT22;15243;50.726;7.080;2023-07-22T05:40:53;13.80;99.90
27900;DHT22;15243;50.726;7.080;2023-07-22T05:43:21;13.80;99.90
27900;DHT22;15243;50.726;7.080;2023-07-22T05:45:48;13.90;99.90
27900;DHT22;15243;50.726;7.080;2023-07-22T05:48:15;14.10;99.90
27900;DHT22;15243;50.726;7.080;2023-07-22T05:50:43;13.90;99.90
27900;DHT22;15243;50.726;7.080;2023-07-22T05:53:10;14.10;99.90
27900;DHT22;15243;50.726;7.080;2023-07-22T05:55:41;14.20;99.90
27900;DHT22;15243;50.726;7.080;2023-07-22T05:58:15;14.50;99.90
27900;DHT22;15243;50.726;7.080;2023-07-22T06:00:43;14.60;99.90
27900;DHT22;15243;50.726;7.080;2023-07-22T06:03:10;14.80;99.90
27900;DHT22;15243;50.726;7.080;2023-07-22T06:05:37;14.90;99.90
27900;DHT22;15243;50.726;7.080;2023-07-22T06:08:04;14.90;99.90
27900;DHT22;15243;50.726;7.080;2023-07-22T06:10:32;15.10;99.90
27900;DHT22;15243;50.726;7.080;2023-07-22T06:12:59;15.20;99.90
27900;DHT22;15243;50.726;7.080;2023-07-22T06:15:26;15.30;99.90
27900;DHT22;15243;50.726;7.080;2023-07-22T06:17:55;15.40;99.90
27900;DHT22;15243;50.726;7.080;2023-07-22T06:20:22;15.50;99.90
27900;DHT22;15243;50.726;7.080;2023-07-22T06:22:49;15.50;99.90
27900;DHT22;15243;50.726;7.080;2023-07-22T06:25:16;15.50;99.90
27900;DHT22;15243;50.726;7.080;2023-07-22T06:27:43;15.40;99.90
27900;DHT22;15243;50.726;7.080;2023-07-22T06:30:10;15.40;99.90
27900;DHT22;15243;50.726;7.080;2023-07-22T06:32:38;15.50;99.90
27900;DHT22;15243;50.726;7.080;2023-07-22T06:35:06;15.60;99.90
27900;DHT22;15243;50.726;7.080;2023-07-22T06:37:33;15.80;99.90
27900;DHT22;15243;50.726;7.080;2023-07-22T06:40:00;15.80;99.90
27900;DHT22;15243;50.726;7.080;2023-07-22T06:42:30;15.90;99.90
27900;DHT22;15243;50.726;7.080;2023-07-22T06:44:57;16.00;99.90
27900;DHT22;15243;50.726;7.080;2023-07-22T06:47:24;16.20;99.90
27900;DHT22;15243;50.726;7.080;2023-07-22T06:49:50;16.50;99.90
27900;DHT22;15243;50.726;7.080;2023-07-22T06:52:17;16.70;99.90
27900;DHT22;15243;50.726;7.080;2023-07-22T06:54:45;16.70;99.90
27900;DHT22;15243;50.726;7.080;2023-07-22T06:57:12;16.80;99.90
27900;DHT22;15243;50.726;7.080;2023-07-22T06:59:39;16.90;99.90
27900;DHT22;15243;50.726;7.080;2023-07-22T07:02:07;16.90;99.90
27900;DHT22;15243;50.726;7.080;2023-07-22T07:04:34;17.00;99.90
27900;DHT22;15243;50.726;7.080;2023-07-22T07:07:01;17.30;99.90
27900;DHT22;15243;50.726;7.080;2023-07-22T07:09:29;17.50;92.30
27900;DHT22;15243;50.726;7.080;2023-07-22T07:11:56;17.70;72.60
27900;DHT22;15243;50.726;7.080;2023-07-22T07:14:24;17.60;81.80
27900;DHT22;15243;50.726;7.080;2023-07-22T07:16:55;17.50;78.20
27900;DHT22;15243;50.726;7.080;2023-07-22T07:19:22;17.60;82.30
27900;DHT22;15243;50.726;7.080;2023-07-22T07:21:49;17.80;68.80
27900;DHT22;15243;50.726;7.080;2023-07-22T07:24:16;17.90;60.90
27900;DHT22;15243;50.726;7.080;2023-07-22T07:26:43;18.10;56.20
27900;DHT22;15243;50.726;7.080;2023-07-22T07:29:11;18.20;55.70
27900;DHT22;15243;50.726;7.080;2023-07-22T07:31:43;18.40;53.90
27900;DHT22;15243;50.726;7.080;2023-07-22T07:34:10;18.40;1.00
27900;DHT22;15243;50.726;7.080;2023-07-22T07:36:37;18.60;1.00
27900;DHT22;15243;50.726;7.080;2023-07-22T07:39:04;18.70;1.00
27900;DHT22;15243;50.726;7.080;2023-07-22T07:41:31;18.80;1.00
27900;DHT22;15243;50.726;7.080;2023-07-22T07:43:58;19.10;1.00
27900;DHT22;15243;50.726;7.080;2023-07-22T07:46:29;19.30;1.00
27900;DHT22;15243;50.726;7.080;2023-07-22T07:48:58;19.50;1.00
27900;DHT22;15243;50.726;7.080;2023-07-22T07:51:29;19.40;1.00
27900;DHT22;15243;50.726;7.080;2023-07-22T07:53:58;19.00;1.00
27900;DHT22;15243;50.726;7.080;2023-07-22T07:56:25;19.20;1.00
27900;DHT22;15243;50.726;7.080;2023-07-22T07:58:53;19.40;1.00
27900;DHT22;15243;50.726;7.080;2023-07-22T08:01:20;19.50;1.00
27900;DHT22;15243;50.726;7.080;2023-07-22T08:03:48;19.30;1.00
27900;DHT22;15243;50.726;7.080;2023-07-22T08:06:16;19.30;1.00
27900;DHT22;15243;50.726;7.080;2023-07-22T08:08:46;19.20;1.00
27900;DHT22;15243;50.726;7.080;2023-07-22T08:11:14;19.40;1.00
27900;DHT22;15243;50.726;7.080;2023-07-22T08:13:42;19.60;1.00
27900;DHT22;15243;50.726;7.080;2023-07-22T08:16:12;19.40;1.00
27900;DHT22;15243;50.726;7.080;2023-07-22T08:18:40;19.50;1.00
27900;DHT22;15243;50.726;7.080;2023-07-22T08:21:08;19.50;1.00
27900;DHT22;15243;50.726;7.080;2023-07-22T08:23:35;19.50;1.00
27900;DHT22;15243;50.726;7.080;2023-07-22T08:26:05;19.70;1.00
27900;DHT22;15243;50.726;7.080;2023-07-22T08:28:33;20.10;1.00
27900;DHT22;15243;50.726;7.080;2023-07-22T08:31:01;20.40;1.00
27900;DHT22;15243;50.726;7.080;2023-07-22T08:33:28;20.40;1.00
27900;DHT22;15243;50.726;7.080;2023-07-22T08:36:08;20.70;1.00
27900;DHT22;15243;50.726;7.080;2023-07-22T08:38:35;20.70;1.00
27900;DHT22;15243;50.726;7.080;2023-07-22T08:41:02;20.60;1.00
27900;DHT22;15243;50.726;7.080;2023-07-22T08:43:30;20.60;1.00
27900;DHT22;15243;50.726;7.080;2023-07-22T08:46:02;20.60;1.00
27900;DHT22;15243;50.726;7.080;2023-07-22T08:48:34;20.60;1.00
27900;DHT22;15243;50.726;7.080;2023-07-22T08:51:07;20.90;1.00
27900;DHT22;15243;50.726;7.080;2023-07-22T08:53:37;21.20;1.00
27900;DHT22;15243;50.726;7.080;2023-07-22T08:56:04;21.50;99.90
27900;DHT22;15243;50.726;7.080;2023-07-22T08:58:32;21.30;99.90
27900;DHT22;15243;50.726;7.080;2023-07-22T09:01:00;21.20;99.90
27900;DHT22;15243;50.726;7.080;2023-07-22T09:03:28;21.00;99.90
27900;DHT22;15243;50.726;7.080;2023-07-22T09:05:56;20.80;99.90
27900;DHT22;15243;50.726;7.080;2023-07-22T09:08:24;21.10;99.90
27900;DHT22;15243;50.726;7.080;2023-07-22T09:10:51;21.20;99.90
27900;DHT22;15243;50.726;7.080;2023-07-22T09:13:19;21.10;99.90
27900;DHT22;15243;50.726;7.080;2023-07-22T09:15:47;20.80;99.90
27900;DHT22;15243;50.726;7.080;2023-07-22T09:18:17;21.00;99.90
27900;DHT22;15243;50.726;7.080;2023-07-22T09:20:44;21.20;99.90
27900;DHT22;15243;50.726;7.080;2023-07-22T09:23:11;21.30;99.90
27900;DHT22;15243;50.726;7.080;2023-07-22T09:25:41;21.40;99.90
27900;DHT22;15243;50.726;7.080;2023-07-22T09:28:08;21.50;99.90
27900;DHT22;15243;50.726;7.080;2023-07-22T09:30:38;21.50;99.90
27900;DHT22;15243;50.726;7.080;2023-07-22T09:33:20;21.70;99.90
27900;DHT22;15243;50.726;7.080;2023-07-22T09:35:49;21.80;99.90
27900;DHT22;15243;50.726;7.080;2023-07-22T09:38:25;21.20;99.90
27900;DHT22;15243;50.726;7.080;2023-07-22T09:40:53;21.20;99.90
27900;DHT22;15243;50.726;7.080;2023-07-22T09:43:22;21.70;99.90
27900;DHT22;15243;50.726;7.080;2023-07-22T09:45:50;21.70;99.90
27900;DHT22;15243;50.726;7.080;2023-07-22T09:48:17;22.30;99.90
27900;DHT22;15243;50.726;7.080;2023-07-22T09:50:44;22.30;99.90
27900;DHT22;15243;50.726;7.080;2023-07-22T09:53:15;22.40;99.90
27900;DHT22;15243;50.726;7.080;2023-07-22T09:55:43;22.70;99.90
27900;DHT22;15243;50.726;7.080;2023-07-22T09:58:10;22.80;99.90
27900;DHT22;15243;50.726;7.080;2023-07-22T10:00:48;23.10;99.90
27900;DHT22;15243;50.726;7.080;2023-07-22T10:03:19;22.80;99.90
27900;DHT22;15243;50.726;7.080;2023-07-22T10:05:48;23.00;99.90
27900;DHT22;15243;50.726;7.080;2023-07-22T10:08:18;22.90;99.90
27900;DHT22;15243;50.726;7.080;2023-07-22T10:10:46;23.00;99.90
27900;DHT22;15243;50.726;7.080;2023-07-22T10:13:14;22.30;99.90
27900;DHT22;15243;50.726;7.080;2023-07-22T10:15:42;22.30;99.90
27900;DHT22;15243;50.726;7.080;2023-07-22T10:18:09;22.40;99.90
27900;DHT22;15243;50.726;7.080;2023-07-22T10:20:38;22.40;99.90
27900;DHT22;15243;50.726;7.080;2023-07-22T10:23:07;22.30;99.90
27900;DHT22;15243;50.726;7.080;2023-07-22T10:25:35;22.40;99.90
27900;DHT22;15243;50.726;7.080;2023-07-22T10:28:06;22.60;99.90
27900;DHT22;15243;50.726;7.080;2023-07-22T10:30:33;22.70;99.90
27900;DHT22;15243;50.726;7.080;2023-07-22T10:33:00;22.40;99.90
27900;DHT22;15243;50.726;7.080;2023-07-22T10:38:14;22.40;99.90
27900;DHT22;15243;50.726;7.080;2023-07-22T10:40:50;22.90;99.90
27900;DHT22;15243;50.726;7.080;2023-07-22T10:43:20;23.20;91.70
27900;DHT22;15243;50.726;7.080;2023-07-22T10:45:52;23.40;95.70
27900;DHT22;15243;50.726;7.080;2023-07-22T10:48:21;23.10;49.10
27900;DHT22;15243;50.726;7.080;2023-07-22T10:50:50;23.10;22.70
27900;DHT22;15243;50.726;7.080;2023-07-22T11:09:40;23.80;1.00
27900;DHT22;15243;50.726;7.080;2023-07-22T11:12:12;23.40;1.00
27900;DHT22;15243;50.726;7.080;2023-07-22T11:14:54;23.70;1.00
27900;DHT22;15243;50.726;7.080;2023-07-22T11:17:29;24.10;1.00
27900;DHT22;15243;50.726;7.080;2023-07-22T11:19:58;24.10;1.00
27900;DHT22;15243;50.726;7.080;2023-07-22T11:22:26;24.20;1.00
27900;DHT22;15243;50.726;7.080;2023-07-22T11:24:56;23.80;1.00
27900;DHT22;15243;50.726;7.080;2023-07-22T11:27:25;23.40;1.00
27900;DHT22;15243;50.726;7.080;2023-07-22T11:29:52;23.80;1.00
27900;DHT22;15243;50.726;7.080;2023-07-22T11:32:20;24.10;1.00
27900;DHT22;15243;50.726;7.080;2023-07-22T11:34:51;23.80;1.00
27900;DHT22;15243;50.726;7.080;2023-07-22T11:37:20;23.80;1.00
27900;DHT22;15243;50.726;7.080;2023-07-22T11:39:47;24.10;1.00
27900;DHT22;15243;50.726;7.080;2023-07-22T11:42:14;24.10;1.00
27900;DHT22;15243;50.726;7.080;2023-07-22T11:44:43;23.80;1.00
27900;DHT22;15243;50.726;7.080;2023-07-22T13:12:18;25.10;99.90
27900;DHT22;15243;50.726;7.080;2023-07-22T13:14:46;26.10;1.00
27900;DHT22;15243;50.726;7.080;2023-07-22T13:17:13;25.90;99.90
27900;DHT22;15243;50.726;7.080;2023-07-22T13:19:40;25.90;99.90
27900;DHT22;15243;50.726;7.080;2023-07-22T13:22:07;26.30;99.90
27900;DHT22;15243;50.726;7.080;2023-07-22T13:24:34;26.60;99.90
27900;DHT22;15243;50.726;7.080;2023-07-22T13:27:01;27.50;99.90
27900;DHT22;15243;50.726;7.080;2023-07-22T13:29:28;27.90;99.90
27900;DHT22;15243;50.726;7.080;2023-07-22T13:31:55;27.70;99.90
27900;DHT22;15243;50.726;7.080;2023-07-22T13:34:22;27.50;99.90
27900;DHT22;15243;50.726;7.080;2023-07-22T13:36:49;27.80;99.90
27900;DHT22;15243;50.726;7.080;2023-07-22T13:39:16;26.60;99.90
27900;DHT22;15243;50.726;7.080;2023-07-22T13:41:43;26.90;99.90
27900;DHT22;15243;50.726;7.080;2023-07-22T13:44:10;27.50;99.90
27900;DHT22;15243;50.726;7.080;2023-07-22T13:46:37;27.90;99.90
27900;DHT22;15243;50.726;7.080;2023-07-22T13:49:04;28.40;99.90
27900;DHT22;15243;50.726;7.080;2023-07-22T13:51:31;28.20;99.90
27900;DHT22;15243;50.726;7.080;2023-07-22T13:53:58;27.70;99.90
27900;DHT22;15243;50.726;7.080;2023-07-22T13:56:25;28.10;99.90
27900;DHT22;15243;50.726;7.080;2023-07-22T13:58:54;28.00;99.90
27900;DHT22;15243;50.726;7.080;2023-07-22T14:01:22;27.40;99.90
27900;DHT22;15243;50.726;7.080;2023-07-22T14:03:49;26.90;99.90
27900;DHT22;15243;50.726;7.080;2023-07-22T14:06:16;28.00;99.90
27900;DHT22;15243;50.726;7.080;2023-07-22T14:08:43;28.70;99.90
27900;DHT22;15243;50.726;7.080;2023-07-22T14:11:10;28.20;99.90
27900;DHT22;15243;50.726;7.080;2023-07-22T14:13:38;27.90;99.90
27900;DHT22;15243;50.726;7.080;2023-07-22T14:16:04;28.10;99.90
27900;DHT22;15243;50.726;7.080;2023-07-22T14:18:48;28.10;99.90
27900;DHT22;15243;50.726;7.080;2023-07-22T14:21:15;29.10;99.90
27900;DHT22;15243;50.726;7.080;2023-07-22T14:23:42;29.00;99.90
27900;DHT22;15243;50.726;7.080;2023-07-22T14:26:10;28.60;99.90
27900;DHT22;15243;50.726;7.080;2023-07-22T14:28:37;29.40;99.90
27900;DHT22;15243;50.726;7.080;2023-07-22T14:31:04;29.90;99.90
27900;DHT22;15243;50.726;7.080;2023-07-22T14:33:31;30.40;99.90
27900;DHT22;15243;50.726;7.080;2023-07-22T14:35:58;30.70;99.90
27900;DHT22;15243;50.726;7.080;2023-07-22T14:38:25;29.10;99.90
27900;DHT22;15243;50.726;7.080;2023-07-22T14:40:52;29.40;99.90
27900;DHT22;15243;50.726;7.080;2023-07-22T14:43:20;29.80;99.90
27900;DHT22;15243;50.726;7.080;2023-07-22T14:45:48;29.60;99.90
27900;DHT22;15243;50.726;7.080;2023-07-22T14:48:15;31.40;99.90
27900;DHT22;15243;50.726;7.080;2023-07-22T14:50:43;31.10;99.90
27900;DHT22;15243;50.726;7.080;2023-07-22T14:53:11;30.20;99.90
27900;DHT22;15243;50.726;7.080;2023-07-22T14:55:38;29.00;99.90
27900;DHT22;15243;50.726;7.080;2023-07-22T14:58:06;29.50;99.90
27900;DHT22;15243;50.726;7.080;2023-07-22T15:00:33;28.70;99.90
27900;DHT22;15243;50.726;7.080;2023-07-22T15:03:00;30.10;99.90
27900;DHT22;15243;50.726;7.080;2023-07-22T15:05:27;29.30;99.90
27900;DHT22;15243;50.726;7.080;2023-07-22T15:07:54;29.20;99.90
27900;DHT22;15243;50.726;7.080;2023-07-22T15:10:22;29.50;99.90
27900;DHT22;15243;50.726;7.080;2023-07-22T15:12:49;29.90;99.90
27900;DHT22;15243;50.726;7.080;2023-07-22T15:15:17;30.30;99.90
27900;DHT22;15243;50.726;7.080;2023-07-22T15:17:44;30.50;99.90
27900;DHT22;15243;50.726;7.080;2023-07-22T15:20:12;30.40;99.90
27900;DHT22;15243;50.726;7.080;2023-07-22T15:22:39;29.90;99.90
27900;DHT22;15243;50.726;7.080;2023-07-22T15:25:06;29.20;99.90
27900;DHT22;15243;50.726;7.080;2023-07-22T15:27:33;28.90;99.90
27900;DHT22;15243;50.726;7.080;2023-07-22T15:30:00;28.50;99.90
27900;DHT22;15243;50.726;7.080;2023-07-22T15:32:27;28.00;99.90
27900;DHT22;15243;50.726;7.080;2023-07-22T15:34:54;27.10;99.90
27900;DHT22;15243;50.726;7.080;2023-07-22T15:37:21;27.20;99.90
27900;DHT22;15243;50.726;7.080;2023-07-22T15:39:48;27.20;99.90
27900;DHT22;15243;50.726;7.080;2023-07-22T15:42:16;27.40;99.90
27900;DHT22;15243;50.726;7.080;2023-07-22T15:44:43;26.50;99.90
27900;DHT22;15243;50.726;7.080;2023-07-22T15:47:10;26.50;99.90
27900;DHT22;15243;50.726;7.080;2023-07-22T15:49:37;26.40;99.90
27900;DHT22;15243;50.726;7.080;2023-07-22T15:52:04;26.50;99.90
27900;DHT22;15243;50.726;7.080;2023-07-22T15:54:31;26.40;99.90
27900;DHT22;15243;50.726;7.080;2023-07-22T15:56:58;26.60;99.90
27900;DHT22;15243;50.726;7.080;2023-07-22T15:59:25;26.40;99.90
27900;DHT22;15243;50.726;7.080;2023-07-22T16:01:53;26.40;99.90
27900;DHT22;15243;50.726;7.080;2023-07-22T16:04:20;26.40;99.90
27900;DHT22;15243;50.726;7.080;2023-07-22T16:06:47;26.70;99.90
27900;DHT22;15243;50.726;7.080;2023-07-22T16:09:14;26.60;99.90
27900;DHT22;15243;50.726;7.080;2023-07-22T16:11:42;26.50;99.90
27900;DHT22;15243;50.726;7.080;2023-07-22T16:14:09;26.20;99.90
27900;DHT22;15243;50.726;7.080;2023-07-22T16:16:36;26.10;99.90
27900;DHT22;15243;50.726;7.080;2023-07-22T16:19:04;25.80;99.90
27900;DHT22;15243;50.726;7.080;2023-07-22T16:21:31;26.20;99.90
27900;DHT22;15243;50.726;7.080;2023-07-22T16:23:58;26.40;99.90
27900;DHT22;15243;50.726;7.080;2023-07-22T16:26:25;25.60;99.90
27900;DHT22;15243;50.726;7.080;2023-07-22T16:28:52;25.90;99.90
27900;DHT22;15243;50.726;7.080;2023-07-22T16:31:19;26.20;99.90
27900;DHT22;15243;50.726;7.080;2023-07-22T16:33:46;26.00;99.90
27900;DHT22;15243;50.726;7.080;2023-07-22T16:36:13;25.80;99.90
27900;DHT22;15243;50.726;7.080;2023-07-22T16:38:40;25.60;99.90
27900;DHT22;15243;50.726;7.080;2023-07-22T16:41:07;25.90;99.90
27900;DHT22;15243;50.726;7.080;2023-07-22T16:43:34;26.10;99.90
27900;DHT22;15243;50.726;7.080;2023-07-22T16:46:01;25.90;99.90
27900;DHT22;15243;50.726;7.080;2023-07-22T16:48:28;25.60;99.90
27900;DHT22;15243;50.726;7.080;2023-07-22T16:50:55;25.30;99.90
27900;DHT22;15243;50.726;7.080;2023-07-22T16:53:22;25.20;99.90
27900;DHT22;15243;50.726;7.080;2023-07-22T16:55:49;25.10;99.90
27900;DHT22;15243;50.726;7.080;2023-07-22T16:58:16;24.60;99.90
27900;DHT22;15243;50.726;7.080;2023-07-22T17:00:43;24.40;99.90
27900;DHT22;15243;50.726;7.080;2023-07-22T17:03:14;24.50;99.90
27900;DHT22;15243;50.726;7.080;2023-07-22T17:05:42;24.60;99.90
27900;DHT22;15243;50.726;7.080;2023-07-22T17:08:09;24.60;99.90
27900;DHT22;15243;50.726;7.080;2023-07-22T17:10:37;24.70;99.90
27900;DHT22;15243;50.726;7.080;2023-07-22T17:13:04;24.60;99.90
27900;DHT22;15243;50.726;7.080;2023-07-22T17:15:31;24.60;99.90
27900;DHT22;15243;50.726;7.080;2023-07-22T17:17:58;24.80;99.90
27900;DHT22;15243;50.726;7.080;2023-07-22T17:20:25;24.80;99.90